Flight Track Log - Related Links

Times and Time Zones

All times are in EDT time to prevent confusion due to time zone crossing. See the N776KR flight status page for this flight to view local times or setup timezone preferences in your user account.

Time Position Orientation Groundspeed Altitude Reporting Facility
EDT Latitude Longitude Course Direction KTS MPH feet Rate Location/Type
Sun 09:51:54 PM 32.5153 -96.8506 163° South 156 180 5,200  Level Houston Center
Sun 09:52:10 PM 32.4981 -96.8444 163° South 168 193 5,300 553 Climbing Fort Worth Center
Sun 09:53:10 PM 32.4561 -96.8250 159° South 173 199 5,900 550 Climbing Fort Worth Center
Sun 09:54:10 PM 32.4164 -96.8081 160° South 167 192 6,400 550 Climbing Fort Worth Center
Sun 09:55:10 PM 32.3683 -96.7836 157° South 175 201 7,000 500 Climbing Fort Worth Center
Sun 09:56:10 PM 32.3286 -96.7667 160° South 170 196 7,400 250 Climbing Fort Worth Center
Sun 09:57:10 PM 32.2742 -96.7425 159° South 180 207 7,500 50 Climbing Fort Worth Center
Sun 09:58:10 PM 32.2344 -96.7233 158° South 192 221 7,500  Level Fort Worth Center
Sun 09:59:10 PM 32.1781 -96.7017 162° South 192 221 7,500  Level Fort Worth Center
Sun 10:00:10 PM 32.1278 -96.6750 156° South 187 215 7,500  Level Fort Worth Center
Sun 10:01:10 PM 32.0733 -96.6558 163° South 187 215 7,500  Level Fort Worth Center
Sun 10:02:10 PM 32.0250 -96.6317 157° South 187 215 7,500  Level Fort Worth Center
Sun 10:03:10 PM 31.9750 -96.6100 160° South 192 221 7,500  Level Fort Worth Center
Sun 10:04:10 PM 31.9247 -96.5861 158° South 187 215 7,500  Level Fort Worth Center
Sun 10:05:10 PM 31.8786 -96.5669 161° South 187 215 7,500  Level Fort Worth Center
Sun 10:06:10 PM 31.8283 -96.5453 160° South 187 215 7,500  Level Fort Worth Center
Sun 10:07:10 PM 31.7800 -96.5214 157° South 187 215 7,500  Level Fort Worth Center
Sun 10:09:13 PM 31.6822 -96.4761 158° South 189 217 7,500  Level Houston Center
Sun 10:10:14 PM 31.6322 -96.4547 160° South 190 219 7,500  Level Houston Center
Sun 10:11:15 PM 31.5825 -96.4328 159° South 188 216 7,500  Level Houston Center
Sun 10:12:16 PM 31.5333 -96.4103 159° South 188 216 7,500  Level Houston Center
Sun 10:13:18 PM 31.4850 -96.3878 158° South 186 214 7,500  Level Houston Center
Sun 10:14:19 PM 31.4342 -96.3667 160° South 190 219 7,500  Level Houston Center
Sun 10:15:20 PM 31.3850 -96.3450 159° South 188 216 7,500  Level Houston Center
Sun 10:16:21 PM 31.3344 -96.3222 159° South 192 221 7,500  Level Houston Center
Sun 10:17:09 PM 31.2900 -96.3047 161° South 190 219 7,500  Level Houston Center
Sun 10:18:16 PM 31.2356 -96.2792 158° South 190 219 7,500  Level Houston Center
Sun 10:19:23 PM 31.1792 -96.2564 161° South 187 215 7,500  Level Houston Center
Sun 10:20:12 PM 31.1419 -96.2386 158° South 185 213 7,500  Level Houston Center
Sun 10:21:26 PM 31.0869 -96.2136 159° South 185 213 7,500  Level Houston Center
Sun 10:22:13 PM 31.0439 -96.1961 161° South 186 214 7,500  Level Houston Center
Sun 10:23:14 PM 30.9919 -96.1753 161° South 187 215 7,500  Level Houston Center
Sun 10:24:15 PM 30.9461 -96.1536 158° South 186 214 7,500  Level Houston Center
Sun 10:24:30 PM 30.9389 -96.1494 154° Southeast 185 213 7,500  Level Houston Center
Sun 10:25:16 PM 30.8939 -96.1328 162° South 187 215 7,500  Level Houston Center
Sun 10:25:31 PM 30.8897 -96.1286 139° Southeast 185 213 7,500  Level Houston Center
Sun 10:26:10 PM 30.8525 -96.1131 160° South 185 213 7,500  Level Houston Center
Sun 10:26:32 PM 30.8397 -96.1058 154° Southeast 189 217 7,500  Level Houston Center
Sun 10:27:17 PM 30.7981 -96.0903 162° South 187 215 7,500  Level Houston Center
Sun 10:27:33 PM 30.7903 -96.0867 158° South 188 216 7,500  Level Houston Center
Sun 10:28:18 PM 30.7500 -96.0689 159° South 188 216 7,500  Level Houston Center
Sun 10:28:34 PM 30.7419 -96.0642 153° Southeast 186 214 7,500  Level Houston Center
Sun 10:29:25 PM 30.6933 -96.0439 160° South 188 216 7,500  Level Houston Center
Sun 10:30:20 PM 30.6478 -96.0247 160° South 188 216 7,500  Level Houston Center
Sun 10:30:36 PM 30.6433 -96.0219 152° Southeast 186 214 7,500  Level Houston Center
Sun 10:31:27 PM 30.5933 -96.0019 161° South 186 214 7,500  Level Houston Center
Sun 10:32:21 PM 30.5497 -95.9828 159° South 188 216 7,500 -85 Level Houston Center
Sun 10:32:38 PM 30.5356 -95.9756 156° South 187 215 7,400 -218 Descending Houston Center
Sun 10:33:16 PM 30.5061 -95.9636 161° South 185 213 7,300 -197 Descending Houston Center
Sun 10:33:39 PM 30.4875 -95.9550 158° South 186 214 7,200 -269 Descending Houston Center
Sun 10:34:23 PM 30.4517 -95.9406 161° South 184 212 7,000 -290 Descending Houston Center
Sun 10:34:41 PM 30.4392 -95.9339 155° Southeast 186 214 6,900 -436 Descending Houston Center
Sun 10:35:18 PM 30.4078 -95.9214 161° South 192 221 6,600 -492 Descending Houston Center
Sun 10:35:42 PM 30.3892 -95.9131 159° South 190 219 6,400 -456 Descending Houston Center
Sun 10:36:37 PM 30.3403 -95.8931 161° South 190 219 6,000 -436 Descending Houston Center
Sun 10:37:32 PM 30.2967 -95.8739 159° South 188 216 5,600 -440 Descending Houston Center
Sun 10:38:26 PM 30.2511 -95.8550 160° South 186 214 5,200 -411 Descending Houston Center
Sun 10:38:45 PM 30.2417 -95.8511 160° South 186 214 5,100 -545 Descending Houston Center
Sun 10:39:21 PM 30.2053 -95.8361 160° South 186 214 4,700 -492 Descending Houston Center
Sun 10:39:46 PM 30.1942 -95.8306 157° South 184 212 4,600 -448 Descending Houston Center
Sun 10:40:28 PM 30.1528 -95.8133 160° South 182 209 4,200 -492 Descending Houston Center
Sun 10:40:47 PM 30.1461 -95.8103 158° South 184 212 4,100 -492 Descending Houston Center
Sun 10:41:29 PM 30.1050 -95.7922 159° South 181 208 3,700 -492 Descending Houston Center
Sun 10:41:48 PM 30.0981 -95.7894 161° South 184 212 3,600 -500 Descending Houston Center
Sun 10:42:29 PM 30.0569 -95.7736 162° South 178 205 3,200 -492 Descending Houston Center
Sun 10:42:49 PM 30.0508 -95.7697 151° Southeast 182 209 3,100 -222 Descending Houston Center
Sun 10:43:50 PM 29.9986 -95.7472 160° South 176 203 2,900 -197 Descending Houston Center

Login

Don't have an account? Register now (free) for customized features, flight alerts, and more!